createdAt,value
2022-12-08T00:00:47.581Z,442.80
2022-12-08T00:01:47.642Z,407.20
2022-12-08T00:02:47.700Z,348.40
2022-12-08T00:03:47.525Z,275.70
2022-12-08T00:04:47.520Z,465.60
2022-12-08T00:05:47.556Z,399.90
2022-12-08T00:06:47.487Z,381.40
2022-12-08T00:07:47.539Z,370.50
2022-12-08T00:08:47.459Z,362.40
2022-12-08T00:09:47.467Z,368.30
2022-12-08T00:10:49.269Z,451.30
2022-12-08T00:11:47.434Z,526.80
2022-12-08T00:12:47.430Z,418.90
2022-12-08T00:13:47.422Z,290.60
2022-12-08T00:14:47.422Z,484.10
2022-12-08T00:15:47.419Z,398.00
2022-12-08T00:16:47.464Z,542.30
2022-12-08T00:17:47.370Z,515.00
2022-12-08T00:18:47.400Z,512.40
2022-12-08T00:19:47.348Z,528.70
2022-12-08T00:20:47.359Z,489.40
2022-12-08T00:21:47.320Z,419.60
2022-12-08T00:22:47.326Z,387.30
2022-12-08T00:23:47.314Z,406.50
2022-12-08T00:24:47.303Z,454.50
2022-12-08T00:25:47.314Z,508.60
2022-12-08T00:26:47.296Z,319.20
2022-12-08T00:27:47.258Z,307.30
2022-12-08T00:28:47.258Z,339.20
2022-12-08T00:29:47.241Z,395.00
2022-12-08T00:30:47.284Z,341.30
2022-12-08T00:31:47.370Z,341.50
2022-12-08T00:32:47.215Z,319.30
2022-12-08T00:33:47.196Z,169.20
2022-12-08T00:34:47.190Z,182.00
2022-12-08T00:35:47.208Z,320.70
2022-12-08T00:36:47.147Z,351.50
2022-12-08T00:37:47.139Z,332.00
2022-12-08T00:38:47.131Z,326.80
2022-12-08T00:39:47.128Z,187.00
2022-12-08T00:40:47.166Z,172.40
2022-12-08T00:41:47.095Z,155.20
2022-12-08T00:42:47.101Z,252.90
2022-12-08T00:43:47.090Z,167.40
2022-12-08T00:44:47.079Z,188.30
2022-12-08T00:45:47.123Z,168.30
2022-12-08T00:46:47.057Z,231.20
2022-12-08T00:47:47.018Z,605.20
2022-12-08T00:48:47.030Z,599.90
2022-12-08T00:49:47.027Z,460.80
2022-12-08T00:50:47.060Z,463.00
2022-12-08T00:51:46.981Z,475.40
2022-12-08T00:52:46.991Z,468.40
2022-12-08T00:53:46.985Z,470.20
2022-12-08T00:54:46.977Z,467.30
2022-12-08T00:55:46.988Z,462.40
2022-12-08T00:56:46.946Z,465.90
2022-12-08T00:57:46.925Z,451.90
2022-12-08T00:58:46.939Z,455.30
2022-12-08T00:59:46.912Z,448.70
2022-12-08T01:00:47.019Z,455.10
2022-12-08T01:01:46.894Z,454.40
2022-12-08T01:02:46.942Z,439.60
2022-12-08T01:03:47.023Z,462.20
2022-12-08T01:04:46.878Z,464.20
2022-12-08T01:05:46.860Z,469.60
2022-12-08T01:06:46.810Z,468.20
2022-12-08T01:07:46.825Z,463.90
2022-12-08T01:08:46.799Z,470.20
2022-12-08T01:09:46.780Z,463.40
2022-12-08T01:10:46.816Z,461.50
2022-12-08T01:11:46.788Z,456.10
2022-12-08T01:12:46.768Z,304.90
2022-12-08T01:13:46.745Z,346.70
2022-12-08T01:14:46.747Z,298.70
2022-12-08T01:15:46.774Z,287.60
2022-12-08T01:16:46.758Z,232.30
2022-12-08T01:17:46.708Z,136.00
2022-12-08T01:18:46.674Z,167.60
2022-12-08T01:19:46.683Z,226.40
2022-12-08T01:20:46.711Z,272.30
2022-12-08T01:21:46.643Z,232.00
2022-12-08T01:22:46.645Z,175.50
2022-12-08T01:23:46.620Z,137.50
2022-12-08T01:24:46.628Z,172.30
2022-12-08T01:25:46.648Z,201.70
2022-12-08T01:26:46.604Z,238.90
2022-12-08T01:27:46.584Z,205.10
2022-12-08T01:28:46.591Z,242.10
2022-12-08T01:29:46.553Z,256.50
2022-12-08T01:30:46.662Z,256.70
2022-12-08T01:31:46.545Z,209.80
2022-12-08T01:32:46.531Z,228.00
2022-12-08T01:33:46.517Z,239.80
2022-12-08T01:34:46.503Z,245.70
2022-12-08T01:35:46.528Z,240.30
2022-12-08T01:36:46.486Z,220.30
2022-12-08T01:37:46.450Z,190.80
2022-12-08T01:38:46.444Z,193.30
2022-12-08T01:39:46.440Z,202.80
2022-12-08T01:40:46.464Z,219.60
2022-12-08T01:41:46.425Z,226.50
2022-12-08T01:42:46.432Z,186.20
2022-12-08T01:43:46.408Z,274.20
2022-12-08T01:44:46.386Z,162.60
2022-12-08T01:45:46.445Z,302.60
2022-12-08T01:46:46.378Z,428.30
2022-12-08T01:47:46.423Z,459.80
2022-12-08T01:48:46.352Z,447.00
2022-12-08T01:49:46.342Z,439.10
2022-12-08T01:50:46.373Z,323.90
2022-12-08T01:51:46.334Z,348.70
2022-12-08T01:52:46.318Z,314.00
2022-12-08T01:53:46.272Z,255.20
2022-12-08T01:54:46.292Z,163.40
2022-12-08T01:55:46.319Z,182.70
2022-12-08T01:56:46.275Z,190.90
2022-12-08T01:57:46.235Z,179.10
2022-12-08T01:58:46.226Z,270.30
2022-12-08T01:59:46.218Z,232.00
2022-12-08T02:00:46.251Z,237.80
2022-12-08T02:01:46.320Z,224.80
2022-12-08T02:02:46.244Z,211.10
2022-12-08T02:03:46.194Z,187.40
2022-12-08T02:04:46.173Z,197.20
2022-12-08T02:05:46.180Z,191.80
2022-12-08T02:06:46.128Z,188.00
2022-12-08T02:07:46.201Z,198.30
2022-12-08T02:08:46.099Z,178.00
2022-12-08T02:09:46.112Z,183.90
2022-12-08T02:10:46.139Z,181.20
2022-12-08T02:11:46.059Z,174.30
2022-12-08T02:12:46.075Z,186.80
2022-12-08T02:13:46.099Z,208.40
2022-12-08T02:14:46.060Z,250.70
2022-12-08T02:15:46.119Z,185.60
2022-12-08T02:16:46.031Z,175.60
2022-12-08T02:17:46.031Z,241.70
2022-12-08T02:18:47.909Z,232.70
2022-12-08T02:19:46.995Z,217.60
2022-12-08T02:20:46.008Z,219.80
2022-12-08T02:21:45.960Z,214.20
2022-12-08T02:22:45.956Z,236.20
2022-12-08T02:23:45.934Z,237.60
2022-12-08T02:24:45.933Z,248.70
2022-12-08T02:25:45.950Z,260.60
2022-12-08T02:26:45.912Z,261.20
2022-12-08T02:27:45.909Z,266.10
2022-12-08T02:28:45.910Z,276.20
2022-12-08T02:29:45.878Z,315.90
2022-12-08T02:30:45.939Z,245.60
2022-12-08T02:31:45.881Z,297.00
2022-12-08T02:32:45.860Z,303.80
2022-12-08T02:33:45.826Z,327.60
2022-12-08T02:34:45.828Z,415.30
2022-12-08T02:35:45.830Z,364.80
2022-12-08T02:36:45.778Z,288.90
2022-12-08T02:37:45.798Z,277.20
2022-12-08T02:38:45.762Z,252.20
2022-12-08T02:39:45.752Z,227.50
2022-12-08T02:40:45.790Z,211.70
2022-12-08T02:41:45.751Z,219.20
2022-12-08T02:42:45.710Z,240.70
2022-12-08T02:43:45.699Z,319.40
2022-12-08T02:44:45.711Z,350.00
2022-12-08T02:45:45.754Z,357.40
2022-12-08T02:46:45.770Z,368.70
2022-12-08T02:47:45.657Z,394.40
2022-12-08T02:48:45.673Z,372.60
2022-12-08T02:49:45.635Z,393.10
2022-12-08T02:50:45.665Z,378.20
2022-12-08T02:51:45.614Z,247.30
2022-12-08T02:52:45.602Z,264.60
2022-12-08T02:53:45.591Z,274.40
2022-12-08T02:54:45.589Z,311.30
2022-12-08T02:55:45.601Z,309.10
2022-12-08T02:56:45.559Z,319.40
2022-12-08T02:57:45.542Z,261.40
2022-12-08T02:58:45.549Z,285.70
2022-12-08T02:59:45.522Z,281.70
2022-12-08T03:00:45.569Z,325.90
2022-12-08T03:01:45.555Z,238.60
2022-12-08T03:02:45.558Z,263.30
2022-12-08T03:03:45.468Z,210.80
2022-12-08T03:04:45.487Z,266.30
2022-12-08T03:05:45.488Z,270.60
2022-12-08T03:06:45.445Z,259.00
2022-12-08T03:07:45.447Z,275.20
2022-12-08T03:08:45.426Z,259.40
2022-12-08T03:09:45.439Z,287.00
2022-12-08T03:10:45.403Z,258.10
2022-12-08T03:11:45.439Z,234.50
2022-12-08T03:12:45.397Z,231.20
2022-12-08T03:13:45.364Z,234.70
2022-12-08T03:14:45.359Z,211.10
2022-12-08T03:15:45.456Z,209.20
2022-12-08T03:16:45.382Z,174.00
2022-12-08T03:17:45.324Z,175.90
2022-12-08T03:18:45.317Z,168.80
2022-12-08T03:19:45.307Z,189.30
2022-12-08T03:20:45.275Z,171.20
2022-12-08T03:21:45.304Z,163.80
2022-12-08T03:22:45.266Z,167.80
2022-12-08T03:23:45.284Z,168.20
2022-12-08T03:24:45.246Z,165.90
2022-12-08T03:25:45.213Z,186.60
2022-12-08T03:26:45.257Z,186.60
2022-12-08T03:27:45.196Z,183.40
2022-12-08T03:28:45.206Z,202.00
2022-12-08T03:29:45.178Z,199.30
2022-12-08T03:30:45.209Z,191.20
2022-12-08T03:31:45.234Z,192.80
2022-12-08T03:32:45.132Z,164.80
2022-12-08T03:33:45.148Z,168.00
2022-12-08T03:34:45.139Z,186.20
2022-12-08T03:35:45.112Z,205.60
2022-12-08T03:36:45.132Z,196.40
2022-12-08T03:37:45.076Z,205.40
2022-12-08T03:38:45.077Z,200.20
2022-12-08T03:39:45.077Z,225.30
2022-12-08T03:40:45.061Z,229.40
2022-12-08T03:41:45.095Z,169.80
2022-12-08T03:42:45.043Z,225.30
2022-12-08T03:43:45.025Z,234.30
2022-12-08T03:44:45.023Z,231.70
2022-12-08T03:45:45.008Z,224.90
2022-12-08T03:46:45.033Z,219.10
2022-12-08T03:47:44.980Z,181.80
2022-12-08T03:48:44.955Z,198.10
2022-12-08T03:49:44.941Z,212.40
2022-12-08T03:50:44.942Z,219.80
2022-12-08T03:51:44.979Z,236.30
2022-12-08T03:52:44.917Z,229.10
2022-12-08T03:53:44.914Z,220.90
2022-12-08T03:54:44.920Z,196.40
2022-12-08T03:55:44.896Z,208.90
2022-12-08T03:56:44.904Z,267.20
2022-12-08T03:57:44.870Z,252.60
2022-12-08T03:58:44.843Z,300.60
2022-12-08T03:59:44.853Z,194.60
2022-12-08T04:00:44.823Z,219.30
2022-12-08T04:01:44.907Z,201.00
2022-12-08T04:02:44.856Z,203.10
2022-12-08T04:03:44.775Z,218.30
2022-12-08T04:04:44.772Z,253.40
2022-12-08T04:05:44.743Z,259.10
2022-12-08T04:06:44.776Z,320.40
2022-12-08T04:07:44.779Z,210.70
2022-12-08T04:08:44.719Z,245.90
2022-12-08T04:09:44.764Z,222.60
2022-12-08T04:10:44.696Z,243.10
2022-12-08T04:11:44.729Z,238.70
2022-12-08T04:12:44.675Z,252.80
2022-12-08T04:13:44.671Z,314.60
2022-12-08T04:14:44.671Z,285.40
2022-12-08T04:15:44.712Z,257.60
2022-12-08T04:16:44.680Z,231.80
2022-12-08T04:17:44.629Z,262.70
2022-12-08T04:18:44.629Z,345.60
2022-12-08T04:19:44.595Z,324.30
2022-12-08T04:20:44.579Z,331.30
2022-12-08T04:21:44.595Z,347.80
2022-12-08T04:22:44.621Z,352.60
2022-12-08T04:23:44.552Z,324.30
2022-12-08T04:24:44.541Z,311.40
2022-12-08T04:25:44.558Z,305.80
2022-12-08T04:26:44.520Z,277.90
2022-12-08T04:27:44.560Z,214.60
2022-12-08T04:28:44.498Z,280.00
2022-12-08T04:29:44.489Z,288.00
2022-12-08T04:30:44.484Z,371.80
2022-12-08T04:31:44.531Z,409.40
2022-12-08T04:32:47.486Z,359.10
2022-12-08T04:33:44.443Z,223.90
2022-12-08T04:34:44.412Z,269.40
2022-12-08T04:35:44.408Z,229.40
2022-12-08T04:36:44.394Z,338.70
2022-12-08T04:37:44.415Z,307.30
2022-12-08T04:38:44.391Z,232.00
2022-12-08T04:39:44.377Z,225.40
2022-12-08T04:40:44.357Z,214.00
2022-12-08T04:41:44.370Z,258.20
2022-12-08T04:42:44.361Z,323.50
2022-12-08T04:43:44.323Z,336.00
2022-12-08T04:44:44.318Z,328.10
2022-12-08T04:45:44.318Z,270.60
2022-12-08T04:46:44.298Z,204.00
2022-12-08T04:47:44.344Z,286.50
2022-12-08T04:48:44.255Z,379.90
2022-12-08T04:49:44.273Z,340.70
2022-12-08T04:50:44.237Z,272.00
2022-12-08T04:51:44.239Z,221.70
2022-12-08T04:52:44.266Z,329.80
2022-12-08T04:53:46.736Z,344.00
2022-12-08T04:54:44.213Z,344.80
2022-12-08T04:55:44.216Z,344.30
2022-12-08T04:56:44.185Z,260.20
2022-12-08T04:57:44.229Z,241.60
2022-12-08T04:58:44.157Z,214.60
2022-12-08T04:59:44.154Z,212.20
2022-12-08T05:00:44.122Z,298.40
2022-12-08T05:01:44.298Z,339.40
2022-12-08T05:02:44.220Z,302.10
2022-12-08T05:03:44.079Z,383.70
2022-12-08T05:04:44.078Z,296.60
2022-12-08T05:05:44.043Z,231.00
2022-12-08T05:06:44.032Z,207.20
2022-12-08T05:07:44.181Z,175.20
2022-12-08T05:08:44.051Z,241.30
2022-12-08T05:09:44.032Z,266.90
2022-12-08T05:10:44.017Z,291.30
2022-12-08T05:11:48.799Z,237.40
2022-12-08T05:12:45.034Z,196.50
2022-12-08T05:13:43.981Z,201.60
2022-12-08T05:14:43.959Z,200.70
2022-12-08T05:15:43.940Z,211.30
2022-12-08T05:16:44.036Z,205.50
2022-12-08T05:17:43.940Z,213.00
2022-12-08T05:18:43.943Z,237.50
2022-12-08T05:19:43.930Z,207.80
2022-12-08T05:20:43.895Z,194.00
2022-12-08T05:21:43.892Z,203.80
2022-12-08T05:22:43.883Z,200.80
2022-12-08T05:23:43.920Z,230.00
2022-12-08T05:24:47.423Z,220.50
2022-12-08T05:25:43.833Z,191.00
2022-12-08T05:26:43.801Z,201.10
2022-12-08T05:27:43.825Z,228.70
2022-12-08T05:28:44.295Z,229.70
2022-12-08T05:29:43.790Z,188.20
2022-12-08T05:30:43.787Z,220.90
2022-12-08T05:31:43.834Z,235.80
2022-12-08T05:32:43.763Z,230.30
2022-12-08T05:33:43.756Z,240.90
2022-12-08T05:34:43.742Z,212.20
2022-12-08T05:35:43.720Z,190.10
2022-12-08T05:36:43.680Z,197.30
2022-12-08T05:37:43.679Z,210.30
2022-12-08T05:38:43.721Z,236.10
2022-12-08T05:39:43.673Z,218.10
2022-12-08T05:40:43.650Z,238.60
2022-12-08T05:41:43.672Z,231.80
2022-12-08T05:42:43.674Z,175.80
2022-12-08T05:43:43.676Z,182.00
2022-12-08T05:44:43.620Z,187.60
2022-12-08T05:45:43.623Z,199.30
2022-12-08T05:46:43.595Z,200.90
2022-12-08T05:47:43.570Z,189.40
2022-12-08T05:48:43.613Z,220.60
2022-12-08T05:49:43.564Z,228.70
2022-12-08T05:50:43.536Z,226.30
2022-12-08T05:51:43.533Z,189.40
2022-12-08T05:52:43.521Z,216.50
2022-12-08T05:53:43.557Z,237.80
2022-12-08T05:54:43.502Z,202.00
2022-12-08T05:55:43.505Z,190.20
2022-12-08T05:56:43.471Z,229.60
2022-12-08T05:57:43.483Z,236.10
2022-12-08T05:58:43.491Z,229.30
2022-12-08T05:59:43.441Z,218.80
2022-12-08T06:00:43.434Z,188.60
2022-12-08T06:01:43.444Z,220.60
2022-12-08T06:02:43.550Z,237.80
2022-12-08T06:03:43.453Z,245.80
2022-12-08T06:04:43.372Z,220.60
2022-12-08T06:05:43.355Z,189.20
2022-12-08T06:06:43.356Z,221.70
2022-12-08T06:07:43.432Z,242.50
2022-12-08T06:08:43.335Z,243.20
2022-12-08T06:09:43.368Z,199.20
2022-12-08T06:10:43.314Z,203.80
2022-12-08T06:11:43.322Z,212.00
2022-12-08T06:12:43.309Z,235.00
2022-12-08T06:13:43.280Z,249.60
2022-12-08T06:14:43.322Z,219.70
2022-12-08T06:15:43.287Z,209.40
2022-12-08T06:16:43.298Z,198.80
2022-12-08T06:17:43.234Z,190.70
2022-12-08T06:18:43.211Z,227.90
2022-12-08T06:19:43.254Z,231.10
2022-12-08T06:20:43.184Z,242.40
2022-12-08T06:21:43.210Z,265.40
2022-12-08T06:22:43.174Z,231.20
2022-12-08T06:23:43.165Z,211.90
2022-12-08T06:24:43.192Z,218.10
2022-12-08T06:25:43.157Z,243.80
2022-12-08T06:26:43.131Z,274.40
2022-12-08T06:27:43.124Z,235.40
2022-12-08T06:28:43.113Z,215.20
2022-12-08T06:29:43.129Z,216.80
2022-12-08T06:30:43.073Z,202.80
2022-12-08T06:31:43.112Z,208.90
2022-12-08T06:32:43.064Z,229.00
2022-12-08T06:33:43.053Z,240.60
2022-12-08T06:34:43.060Z,239.70
2022-12-08T06:35:43.030Z,202.40
2022-12-08T06:36:42.996Z,186.80
2022-12-08T06:37:43.007Z,178.60
2022-12-08T06:38:43.886Z,209.80
2022-12-08T06:39:43.063Z,233.30
2022-12-08T06:40:42.974Z,203.40
2022-12-08T06:41:42.965Z,154.90
2022-12-08T06:42:42.927Z,167.80
2022-12-08T06:43:42.953Z,237.00
2022-12-08T06:44:42.939Z,290.40
2022-12-08T06:45:42.986Z,318.30
2022-12-08T06:46:42.906Z,387.20
2022-12-08T06:47:42.907Z,448.70
2022-12-08T06:48:42.878Z,299.70
2022-12-08T06:49:42.913Z,181.40
2022-12-08T06:50:42.872Z,164.90
2022-12-08T06:51:42.841Z,270.70
2022-12-08T06:52:55.770Z,358.90
2022-12-08T06:53:43.847Z,368.00
2022-12-08T06:54:42.838Z,184.00
2022-12-08T06:55:58.371Z,193.90
2022-12-08T06:56:43.769Z,203.30
2022-12-08T06:57:42.758Z,198.80
2022-12-08T06:58:46.123Z,239.90
2022-12-08T06:59:43.956Z,216.50
2022-12-08T07:00:42.782Z,167.40
2022-12-08T07:01:42.806Z,156.30
2022-12-08T07:02:42.745Z,182.00
2022-12-08T07:03:42.688Z,344.30
2022-12-08T07:04:42.732Z,332.40
2022-12-08T07:05:42.652Z,272.60
2022-12-08T07:06:42.667Z,224.20
2022-12-08T07:07:42.688Z,280.50
2022-12-08T07:08:42.631Z,287.90
2022-12-08T07:09:42.648Z,411.20
2022-12-08T07:10:42.678Z,675.50
2022-12-08T07:11:42.633Z,435.20
2022-12-08T07:12:42.593Z,99.20
2022-12-08T07:13:42.591Z,999.90
2022-12-08T07:14:42.582Z,999.90
2022-12-08T07:15:42.635Z,614.50
2022-12-08T07:16:42.624Z,478.20
2022-12-08T07:17:42.559Z,304.30
2022-12-08T07:18:42.546Z,307.00
2022-12-08T07:19:42.520Z,266.80
2022-12-08T07:20:42.535Z,285.20
2022-12-08T07:21:42.509Z,300.60
2022-12-08T07:22:42.484Z,301.30
2022-12-08T07:23:42.492Z,999.90
2022-12-08T07:24:42.478Z,645.80
2022-12-08T07:25:42.480Z,219.30
2022-12-08T07:26:42.439Z,442.60
2022-12-08T07:27:42.426Z,551.10
2022-12-08T07:28:42.420Z,673.00
2022-12-08T07:29:42.391Z,606.50
2022-12-08T07:30:42.486Z,663.60
2022-12-08T07:31:42.402Z,600.80
2022-12-08T07:32:42.350Z,473.60
2022-12-08T07:33:42.359Z,401.20
2022-12-08T07:34:42.321Z,422.90
2022-12-08T07:35:47.799Z,388.60
2022-12-08T07:36:43.309Z,384.90
2022-12-08T07:37:42.332Z,422.90
2022-12-08T07:38:42.301Z,381.40
2022-12-08T07:39:42.308Z,359.30
2022-12-08T07:40:42.306Z,300.90
2022-12-08T07:41:42.261Z,219.60
2022-12-08T07:42:42.262Z,454.10
2022-12-08T07:43:42.228Z,554.70
2022-12-08T07:44:42.307Z,999.90
2022-12-08T07:45:42.289Z,999.90
2022-12-08T07:46:42.277Z,999.90
2022-12-08T07:47:42.196Z,564.80
2022-12-08T07:48:42.173Z,999.90
2022-12-08T07:49:42.186Z,314.10
2022-12-08T07:50:42.188Z,167.40
2022-12-08T07:51:42.144Z,999.90
2022-12-08T07:52:42.152Z,999.90
2022-12-08T07:53:42.834Z,999.90
2022-12-08T07:54:42.122Z,999.90
2022-12-08T07:55:42.161Z,460.40
2022-12-08T07:56:42.078Z,460.20
2022-12-08T07:57:42.097Z,316.50
2022-12-08T07:58:42.058Z,254.30
2022-12-08T07:59:42.059Z,356.60
2022-12-08T08:00:42.095Z,234.30
2022-12-08T08:01:45.336Z,999.90
2022-12-08T08:02:42.111Z,999.90
2022-12-08T08:03:41.985Z,999.90
2022-12-08T08:04:42.015Z,325.00
2022-12-08T08:05:42.027Z,999.90
2022-12-08T08:06:41.993Z,999.90
2022-12-08T08:07:42.009Z,999.90
2022-12-08T08:08:41.940Z,111.00
2022-12-08T08:09:41.941Z,999.90
2022-12-08T08:10:41.978Z,999.90
2022-12-08T08:11:41.935Z,999.90
2022-12-08T08:12:41.898Z,999.90
2022-12-08T08:13:41.908Z,999.90
2022-12-08T08:14:41.876Z,999.90
2022-12-08T08:15:42.036Z,999.90
2022-12-08T08:16:42.000Z,176.50
2022-12-08T08:17:41.956Z,999.90
2022-12-08T08:18:41.858Z,999.90
2022-12-08T08:19:41.820Z,999.90
2022-12-08T08:20:41.857Z,999.90
2022-12-08T08:21:46.157Z,999.90
2022-12-08T08:22:41.780Z,999.90
2022-12-08T08:23:41.802Z,999.90
2022-12-08T08:24:45.042Z,999.90
2022-12-08T08:25:41.778Z,999.90
2022-12-08T08:26:41.749Z,999.90
2022-12-08T08:27:41.744Z,999.90
2022-12-08T08:28:41.728Z,999.90
2022-12-08T08:29:41.728Z,999.90
2022-12-08T08:30:41.786Z,999.90
2022-12-08T08:31:41.722Z,999.90
2022-12-08T08:32:41.673Z,999.90
2022-12-08T08:33:41.665Z,999.90
2022-12-08T08:34:41.668Z,999.90
2022-12-08T08:35:41.679Z,999.90
2022-12-08T08:36:41.714Z,999.90
2022-12-08T08:37:45.714Z,999.90
2022-12-08T08:38:42.612Z,999.90
2022-12-08T08:39:41.607Z,999.90
2022-12-08T08:40:41.622Z,999.90
2022-12-08T08:41:41.584Z,999.90
2022-12-08T08:42:41.556Z,999.90
2022-12-08T08:43:41.535Z,999.90
2022-12-08T08:44:41.574Z,999.90
2022-12-08T08:45:41.563Z,999.90
2022-12-08T08:46:41.674Z,999.90
2022-12-08T08:47:41.511Z,999.90
2022-12-08T08:48:41.508Z,999.90
2022-12-08T08:49:41.480Z,999.90
2022-12-08T08:50:41.488Z,999.90
2022-12-08T08:51:41.450Z,999.90
2022-12-08T08:52:41.442Z,999.90
2022-12-08T08:53:41.439Z,999.90
2022-12-08T08:54:41.425Z,999.90
2022-12-08T08:55:41.438Z,999.90
2022-12-08T08:56:41.459Z,999.90
2022-12-08T08:57:41.382Z,999.90
2022-12-08T08:58:41.382Z,999.90
2022-12-08T08:59:41.362Z,999.90
2022-12-08T09:00:41.391Z,185.00
2022-12-08T09:01:41.358Z,999.90
2022-12-08T09:02:41.353Z,999.90
2022-12-08T09:03:41.334Z,999.90
2022-12-08T09:04:41.346Z,999.90
2022-12-08T09:05:41.395Z,999.90
2022-12-08T09:06:41.298Z,999.90
2022-12-08T09:07:41.324Z,999.90
2022-12-08T09:08:41.277Z,999.90
2022-12-08T09:09:41.280Z,999.90
2022-12-08T09:10:41.260Z,999.90
2022-12-08T09:11:41.261Z,999.90
2022-12-08T09:12:41.227Z,999.90
2022-12-08T09:13:41.191Z,999.90
2022-12-08T09:14:41.209Z,999.90
2022-12-08T09:15:41.240Z,999.90
2022-12-08T09:16:42.529Z,999.90
2022-12-08T09:17:41.162Z,999.90
2022-12-08T09:18:41.148Z,999.90
2022-12-08T09:19:41.127Z,999.90
2022-12-08T09:20:41.133Z,999.90
2022-12-08T09:21:41.156Z,999.90
2022-12-08T09:22:41.101Z,999.90
2022-12-08T09:23:41.069Z,999.90
2022-12-08T09:24:41.064Z,999.90
2022-12-08T09:25:41.102Z,999.90
2022-12-08T09:26:41.077Z,999.90
2022-12-08T09:27:41.048Z,999.90
2022-12-08T09:28:41.020Z,999.90
2022-12-08T09:29:41.035Z,999.90
2022-12-08T09:30:41.005Z,999.90
2022-12-08T09:31:41.107Z,999.90
2022-12-08T09:32:41.018Z,999.90
2022-12-08T09:33:40.988Z,999.90
2022-12-08T09:34:40.968Z,999.90
2022-12-08T09:35:40.950Z,999.90
2022-12-08T09:36:40.985Z,999.90
2022-12-08T09:37:40.923Z,999.90
2022-12-08T09:38:40.929Z,999.90
2022-12-08T09:39:40.933Z,999.90
2022-12-08T09:40:40.898Z,999.90
2022-12-08T09:41:47.676Z,999.90
2022-12-08T09:42:41.875Z,999.90
2022-12-08T09:43:40.867Z,999.90
2022-12-08T09:44:40.903Z,999.90
2022-12-08T09:45:40.823Z,999.90
2022-12-08T09:46:40.912Z,999.90
2022-12-08T09:47:40.813Z,999.90
2022-12-08T09:48:40.821Z,999.90
2022-12-08T09:49:40.785Z,999.90
2022-12-08T09:50:40.794Z,999.90
2022-12-08T09:51:40.819Z,999.90
2022-12-08T09:52:40.775Z,999.90
2022-12-08T09:53:40.778Z,999.90
2022-12-08T09:54:40.772Z,999.90
2022-12-08T09:55:40.733Z,999.90
2022-12-08T09:56:40.760Z,999.90
2022-12-08T09:57:40.705Z,999.90
2022-12-08T09:58:40.689Z,999.90
2022-12-08T09:59:40.752Z,999.90
2022-12-08T10:00:40.683Z,999.90
2022-12-08T10:01:40.797Z,999.90
2022-12-08T10:02:40.678Z,999.90
2022-12-08T10:03:40.656Z,999.90
2022-12-08T10:04:40.711Z,999.90
2022-12-08T10:05:40.625Z,999.90
2022-12-08T10:06:40.655Z,999.90
2022-12-08T10:07:40.618Z,999.90
2022-12-08T10:08:40.594Z,999.90
2022-12-08T10:09:40.570Z,999.90
2022-12-08T10:10:40.558Z,999.90
2022-12-08T10:11:40.583Z,999.90
2022-12-08T10:12:40.545Z,999.90
2022-12-08T10:13:40.531Z,999.90
2022-12-08T10:14:40.527Z,999.90
2022-12-08T10:15:40.632Z,999.90
2022-12-08T10:16:40.674Z,999.90
2022-12-08T10:17:40.480Z,999.90
2022-12-08T10:18:40.487Z,999.90
2022-12-08T10:19:40.475Z,999.90
2022-12-08T10:20:40.444Z,999.90
2022-12-08T10:21:40.491Z,999.90
2022-12-08T10:22:44.676Z,999.90
2022-12-08T10:23:40.409Z,999.90
2022-12-08T10:24:40.406Z,999.90
2022-12-08T10:25:40.376Z,999.90
2022-12-08T10:26:40.422Z,999.90
2022-12-08T10:27:40.379Z,999.90
2022-12-08T10:28:44.756Z,999.90
2022-12-08T10:29:41.333Z,999.90
2022-12-08T10:30:40.338Z,999.90
2022-12-08T10:31:40.470Z,999.90
2022-12-08T10:32:40.334Z,999.90
2022-12-08T10:33:40.282Z,999.90
2022-12-08T10:34:40.313Z,999.90
2022-12-08T10:35:40.276Z,999.90
2022-12-08T10:36:40.321Z,999.90
2022-12-08T10:37:40.238Z,999.90
2022-12-08T10:38:40.250Z,999.90
2022-12-08T10:39:40.224Z,999.90
2022-12-08T10:40:45.462Z,999.90
2022-12-08T10:41:41.262Z,999.90
2022-12-08T10:42:40.176Z,999.90
2022-12-08T10:43:40.185Z,999.90
2022-12-08T10:44:40.167Z,999.90
2022-12-08T10:45:40.159Z,999.90
2022-12-08T10:46:40.185Z,999.90
2022-12-08T10:47:44.638Z,999.90
2022-12-08T10:48:41.132Z,999.90
2022-12-08T10:49:40.121Z,999.90
2022-12-08T10:50:40.105Z,999.90
2022-12-08T10:51:40.093Z,999.90
2022-12-08T10:52:40.116Z,999.90
2022-12-08T10:53:40.067Z,999.90
2022-12-08T10:54:40.039Z,999.90
2022-12-08T10:55:40.052Z,999.90
2022-12-08T10:56:40.027Z,999.90
2022-12-08T10:57:40.072Z,999.90
2022-12-08T10:58:40.003Z,999.90
2022-12-08T10:59:40.005Z,999.90
2022-12-08T11:00:40.084Z,999.90
2022-12-08T11:01:40.191Z,999.90
2022-12-08T11:02:40.078Z,999.90
2022-12-08T11:03:39.938Z,999.90
2022-12-08T11:04:39.957Z,999.90
2022-12-08T11:05:39.929Z,999.90
2022-12-08T11:06:39.931Z,999.90
2022-12-08T11:07:39.988Z,999.90
2022-12-08T11:08:39.872Z,207.40
2022-12-08T11:09:39.865Z,355.70
2022-12-08T11:10:39.860Z,44.10
2022-12-08T11:11:39.864Z,28.40
2022-12-08T11:12:39.891Z,26.20
2022-12-08T11:13:39.837Z,27.10
2022-12-08T11:14:39.823Z,30.30
2022-12-08T11:15:39.795Z,38.10
2022-12-08T11:16:39.896Z,29.20
2022-12-08T11:17:39.811Z,26.40
2022-12-08T11:18:39.773Z,25.40
2022-12-08T11:19:39.750Z,20.10
2022-12-08T11:20:39.764Z,20.90
2022-12-08T11:21:39.736Z,22.80
2022-12-08T11:22:39.777Z,23.20
2022-12-08T11:23:39.720Z,21.50
2022-12-08T11:24:39.702Z,23.40
2022-12-08T11:25:39.694Z,24.70
2022-12-08T11:26:39.680Z,24.80
2022-12-08T11:27:39.696Z,34.50
2022-12-08T11:28:39.678Z,40.60
2022-12-08T11:29:39.644Z,44.80
2022-12-08T11:30:39.657Z,70.10
2022-12-08T11:31:39.708Z,50.80
2022-12-08T11:32:39.661Z,35.50
2022-12-08T11:33:39.600Z,39.70
2022-12-08T11:34:39.578Z,50.30
2022-12-08T11:35:39.569Z,22.70
2022-12-08T11:36:39.585Z,16.40
2022-12-08T11:37:39.611Z,18.60
2022-12-08T11:38:39.530Z,24.40
2022-12-08T11:39:39.516Z,29.30
2022-12-08T11:40:39.532Z,35.00
2022-12-08T11:41:39.498Z,34.70
2022-12-08T11:42:39.530Z,28.00
2022-12-08T11:43:39.527Z,15.40
2022-12-08T11:44:39.479Z,15.30
2022-12-08T11:45:39.503Z,14.90
2022-12-08T11:46:39.466Z,13.50
2022-12-08T11:47:39.443Z,16.00
2022-12-08T11:48:39.502Z,17.00
2022-12-08T11:49:39.403Z,19.20
2022-12-08T11:50:39.423Z,18.30
2022-12-08T11:51:39.397Z,47.40
2022-12-08T11:52:39.390Z,51.30
2022-12-08T11:53:39.418Z,49.10
2022-12-08T11:54:39.355Z,44.10
2022-12-08T11:55:41.642Z,47.90
2022-12-08T11:56:39.341Z,33.90
2022-12-08T11:57:39.333Z,31.10
2022-12-08T11:58:39.369Z,35.80
2022-12-08T11:59:39.296Z,31.50
2022-12-08T12:00:39.286Z,36.70
2022-12-08T12:01:42.526Z,44.80
2022-12-08T12:02:39.350Z,32.50
2022-12-08T12:03:39.356Z,32.80
2022-12-08T12:04:39.231Z,82.80
2022-12-08T12:06:05.777Z,80.10
2022-12-08T12:06:54.808Z,91.60
2022-12-08T12:07:40.311Z,93.80
2022-12-08T12:08:39.262Z,72.20
2022-12-08T12:09:39.173Z,69.70
2022-12-08T12:10:39.175Z,77.30
2022-12-08T12:11:39.168Z,73.40
2022-12-08T12:12:40.081Z,62.50
2022-12-08T12:13:39.140Z,57.70
2022-12-08T12:14:39.169Z,61.40
2022-12-08T12:15:39.112Z,49.00
2022-12-08T12:16:39.156Z,31.90
2022-12-08T12:17:39.099Z,36.00
2022-12-08T12:18:39.088Z,42.80
2022-12-08T12:19:39.133Z,63.60
2022-12-08T12:20:39.051Z,41.00
2022-12-08T12:21:39.086Z,35.80
2022-12-08T12:22:39.041Z,26.20
2022-12-08T12:23:39.010Z,26.00
2022-12-08T12:24:39.073Z,30.50
2022-12-08T12:25:38.998Z,39.80
2022-12-08T12:26:39.004Z,42.10
2022-12-08T12:27:39.009Z,38.70
2022-12-08T12:28:38.956Z,72.80
2022-12-08T12:29:38.994Z,128.90
2022-12-08T12:30:39.017Z,72.00
2022-12-08T12:31:38.938Z,72.80